sensor_id;sensor_type;location;lat;lon;timestamp;P1;durP1;ratioP1;P2;durP2;ratioP2
51491;SDS011;37569;50.548;8.778;2024-01-10T00:01:16;26.7;;;14.6;;
51491;SDS011;37569;50.548;8.778;2024-01-10T00:06:16;26.1;;;12.7;;
51491;SDS011;37569;50.548;8.778;2024-01-10T00:11:16;27.7;;;14.7;;
51491;SDS011;37569;50.548;8.778;2024-01-10T00:16:16;27.2;;;15.2;;
51491;SDS011;37569;50.548;8.778;2024-01-10T00:21:16;23.7;;;10.9;;
51491;SDS011;37569;50.548;8.778;2024-01-10T00:26:15;28.5;;;14.6;;
51491;SDS011;37569;50.548;8.778;2024-01-10T00:31:15;17.2;;;8.9;;
51491;SDS011;37569;50.548;8.778;2024-01-10T00:36:15;25;;;13.7;;
51491;SDS011;37569;50.548;8.778;2024-01-10T00:41:15;21.4;;;10.8;;
51491;SDS011;37569;50.548;8.778;2024-01-10T00:46:14;29.8;;;17.3;;
51491;SDS011;37569;50.548;8.778;2024-01-10T00:51:14;32.2;;;14.7;;
51491;SDS011;37569;50.548;8.778;2024-01-10T00:56:14;30;;;15;;
51491;SDS011;37569;50.548;8.778;2024-01-10T01:01:14;34.1;;;16.6;;
51491;SDS011;37569;50.548;8.778;2024-01-10T01:06:14;29.2;;;15.1;;
51491;SDS011;37569;50.548;8.778;2024-01-10T01:11:13;31.6;;;15.7;;
51491;SDS011;37569;50.548;8.778;2024-01-10T01:16:13;29.3;;;18.1;;
51491;SDS011;37569;50.548;8.778;2024-01-10T01:21:13;33.1;;;18.1;;
51491;SDS011;37569;50.548;8.778;2024-01-10T01:26:13;32.8;;;17.7;;
51491;SDS011;37569;50.548;8.778;2024-01-10T01:31:13;31.9;;;15.7;;
51491;SDS011;37569;50.548;8.778;2024-01-10T01:36:12;31.1;;;17;;
51491;SDS011;37569;50.548;8.778;2024-01-10T01:41:12;28.4;;;15.1;;
51491;SDS011;37569;50.548;8.778;2024-01-10T01:46:12;25.8;;;13.8;;
51491;SDS011;37569;50.548;8.778;2024-01-10T01:51:12;32.5;;;17.7;;
51491;SDS011;37569;50.548;8.778;2024-01-10T01:56:12;30.1;;;16.2;;
51491;SDS011;37569;50.548;8.778;2024-01-10T02:01:11;28.1;;;14.9;;
51491;SDS011;37569;50.548;8.778;2024-01-10T02:06:11;25.4;;;12.7;;
51491;SDS011;37569;50.548;8.778;2024-01-10T02:11:11;34.9;;;15.7;;
51491;SDS011;37569;50.548;8.778;2024-01-10T02:16:10;30.3;;;14.4;;
51491;SDS011;37569;50.548;8.778;2024-01-10T02:21:10;33.7;;;15.4;;
51491;SDS011;37569;50.548;8.778;2024-01-10T02:26:10;32;;;15.7;;
51491;SDS011;37569;50.548;8.778;2024-01-10T02:31:10;31.7;;;15.4;;
51491;SDS011;37569;50.548;8.778;2024-01-10T02:36:09;31.3;;;17;;
51491;SDS011;37569;50.548;8.778;2024-01-10T02:41:09;30.8;;;15.4;;
51491;SDS011;37569;50.548;8.778;2024-01-10T02:46:09;30.9;;;15.6;;
51491;SDS011;37569;50.548;8.778;2024-01-10T02:51:09;32.3;;;15.7;;
51491;SDS011;37569;50.548;8.778;2024-01-10T02:56:08;31.3;;;15.1;;
51491;SDS011;37569;50.548;8.778;2024-01-10T03:01:08;31.7;;;15.5;;
51491;SDS011;37569;50.548;8.778;2024-01-10T03:06:08;30.8;;;15.2;;
51491;SDS011;37569;50.548;8.778;2024-01-10T03:11:08;28.8;;;14.3;;
51491;SDS011;37569;50.548;8.778;2024-01-10T03:16:07;31.9;;;15.8;;
51491;SDS011;37569;50.548;8.778;2024-01-10T03:21:07;34.3;;;16.3;;
51491;SDS011;37569;50.548;8.778;2024-01-10T03:26:09;34.1;;;16.7;;
51491;SDS011;37569;50.548;8.778;2024-01-10T03:31:07;25.9;;;13.1;;
51491;SDS011;37569;50.548;8.778;2024-01-10T03:36:08;30.3;;;14.5;;
51491;SDS011;37569;50.548;8.778;2024-01-10T03:41:06;35;;;16.4;;
51491;SDS011;37569;50.548;8.778;2024-01-10T03:46:06;32.7;;;16.3;;
51491;SDS011;37569;50.548;8.778;2024-01-10T03:51:06;34.2;;;17.7;;
51491;SDS011;37569;50.548;8.778;2024-01-10T03:56:06;35.7;;;16.2;;
51491;SDS011;37569;50.548;8.778;2024-01-10T04:01:05;33.1;;;16;;
51491;SDS011;37569;50.548;8.778;2024-01-10T04:06:05;27.9;;;13.9;;
51491;SDS011;37569;50.548;8.778;2024-01-10T04:11:05;33.3;;;18.6;;
51491;SDS011;37569;50.548;8.778;2024-01-10T04:16:05;25.3;;;11.9;;
51491;SDS011;37569;50.548;8.778;2024-01-10T04:21:04;31;;;15.9;;
51491;SDS011;37569;50.548;8.778;2024-01-10T04:26:04;32;;;16.5;;
51491;SDS011;37569;50.548;8.778;2024-01-10T04:31:04;31.4;;;16;;
51491;SDS011;37569;50.548;8.778;2024-01-10T04:36:04;34.6;;;18.4;;
51491;SDS011;37569;50.548;8.778;2024-01-10T04:41:03;26.5;;;14;;
51491;SDS011;37569;50.548;8.778;2024-01-10T04:46:03;38.7;;;18.7;;
51491;SDS011;37569;50.548;8.778;2024-01-10T04:51:03;32;;;15.6;;
51491;SDS011;37569;50.548;8.778;2024-01-10T04:56:03;27.6;;;14.5;;
51491;SDS011;37569;50.548;8.778;2024-01-10T05:01:03;32.6;;;16.1;;
51491;SDS011;37569;50.548;8.778;2024-01-10T05:06:02;30.5;;;15.5;;
51491;SDS011;37569;50.548;8.778;2024-01-10T05:11:02;37.3;;;20.2;;
51491;SDS011;37569;50.548;8.778;2024-01-10T05:16:02;34;;;18.4;;
51491;SDS011;37569;50.548;8.778;2024-01-10T05:21:02;35;;;17.1;;
51491;SDS011;37569;50.548;8.778;2024-01-10T05:26:01;32.9;;;17.1;;
51491;SDS011;37569;50.548;8.778;2024-01-10T05:31:01;32.4;;;17.2;;
51491;SDS011;37569;50.548;8.778;2024-01-10T05:36:01;40.9;;;19;;
51491;SDS011;37569;50.548;8.778;2024-01-10T05:41:01;40.2;;;19.9;;
51491;SDS011;37569;50.548;8.778;2024-01-10T05:46:00;22.1;;;12.5;;
51491;SDS011;37569;50.548;8.778;2024-01-10T05:51:00;33.8;;;16.9;;
51491;SDS011;37569;50.548;8.778;2024-01-10T05:56:00;35.9;;;18.8;;
51491;SDS011;37569;50.548;8.778;2024-01-10T06:01:00;34.8;;;17.1;;
51491;SDS011;37569;50.548;8.778;2024-01-10T06:05:59;34.7;;;17.3;;
51491;SDS011;37569;50.548;8.778;2024-01-10T06:11:01;35.6;;;15.4;;
51491;SDS011;37569;50.548;8.778;2024-01-10T06:15:59;34.5;;;16.3;;
51491;SDS011;37569;50.548;8.778;2024-01-10T06:20:59;36.5;;;17.2;;
51491;SDS011;37569;50.548;8.778;2024-01-10T06:25:59;35.5;;;17.2;;
51491;SDS011;37569;50.548;8.778;2024-01-10T06:30:58;30.3;;;15.1;;
51491;SDS011;37569;50.548;8.778;2024-01-10T06:35:58;30.4;;;14.8;;
51491;SDS011;37569;50.548;8.778;2024-01-10T06:40:58;42.6;;;18.6;;
51491;SDS011;37569;50.548;8.778;2024-01-10T06:45:58;41.8;;;22.1;;
51491;SDS011;37569;50.548;8.778;2024-01-10T06:50:58;34.1;;;16.9;;
51491;SDS011;37569;50.548;8.778;2024-01-10T06:55:57;31.5;;;15.1;;
51491;SDS011;37569;50.548;8.778;2024-01-10T07:00:57;39;;;16.5;;
51491;SDS011;37569;50.548;8.778;2024-01-10T07:05:57;21.9;;;11.6;;
51491;SDS011;37569;50.548;8.778;2024-01-10T07:10:56;35.6;;;17.5;;
51491;SDS011;37569;50.548;8.778;2024-01-10T07:15:56;36.4;;;17.1;;
51491;SDS011;37569;50.548;8.778;2024-01-10T07:20:56;39.1;;;18.2;;
51491;SDS011;37569;50.548;8.778;2024-01-10T07:25:56;39.9;;;19.5;;
51491;SDS011;37569;50.548;8.778;2024-01-10T07:30:56;33.6;;;17.4;;
51491;SDS011;37569;50.548;8.778;2024-01-10T07:35:56;22.3;;;10.8;;
51491;SDS011;37569;50.548;8.778;2024-01-10T07:40:55;34.9;;;17.3;;
51491;SDS011;37569;50.548;8.778;2024-01-10T07:45:55;40.1;;;17.5;;
51491;SDS011;37569;50.548;8.778;2024-01-10T07:50:55;39.4;;;18.9;;
51491;SDS011;37569;50.548;8.778;2024-01-10T07:55:54;42;;;20.5;;
51491;SDS011;37569;50.548;8.778;2024-01-10T08:00:54;39.1;;;17.3;;
51491;SDS011;37569;50.548;8.778;2024-01-10T08:05:54;37.1;;;18;;
51491;SDS011;37569;50.548;8.778;2024-01-10T08:10:54;38.9;;;19.8;;
51491;SDS011;37569;50.548;8.778;2024-01-10T08:15:54;20;;;11.2;;
51491;SDS011;37569;50.548;8.778;2024-01-10T08:20:53;23.2;;;11.8;;
51491;SDS011;37569;50.548;8.778;2024-01-10T08:25:53;39.5;;;19.4;;
51491;SDS011;37569;50.548;8.778;2024-01-10T08:30:53;37.8;;;19.2;;
51491;SDS011;37569;50.548;8.778;2024-01-10T08:35:53;37.4;;;17.7;;
51491;SDS011;37569;50.548;8.778;2024-01-10T08:40:52;35.8;;;18.1;;
51491;SDS011;37569;50.548;8.778;2024-01-10T08:45:52;37.8;;;19.3;;
51491;SDS011;37569;50.548;8.778;2024-01-10T08:50:52;38.5;;;18.1;;
51491;SDS011;37569;50.548;8.778;2024-01-10T08:55:52;40.4;;;20.5;;
51491;SDS011;37569;50.548;8.778;2024-01-10T09:00:51;38.3;;;18.5;;
51491;SDS011;37569;50.548;8.778;2024-01-10T09:05:51;41;;;20.1;;
51491;SDS011;37569;50.548;8.778;2024-01-10T09:10:51;40.1;;;19.9;;
51491;SDS011;37569;50.548;8.778;2024-01-10T09:15:51;37.6;;;19.1;;
51491;SDS011;37569;50.548;8.778;2024-01-10T09:20:51;41.6;;;20.9;;
51491;SDS011;37569;50.548;8.778;2024-01-10T09:25:50;41.9;;;21.2;;
51491;SDS011;37569;50.548;8.778;2024-01-10T09:30:50;42.9;;;20.2;;
51491;SDS011;37569;50.548;8.778;2024-01-10T09:35:50;41.6;;;20.5;;
51491;SDS011;37569;50.548;8.778;2024-01-10T09:40:50;40.6;;;19.3;;
51491;SDS011;37569;50.548;8.778;2024-01-10T09:45:50;39.7;;;20.5;;
51491;SDS011;37569;50.548;8.778;2024-01-10T09:50:50;42.4;;;21.7;;
51491;SDS011;37569;50.548;8.778;2024-01-10T09:55:49;36.2;;;17.8;;
51491;SDS011;37569;50.548;8.778;2024-01-10T10:00:49;38.6;;;18.5;;
51491;SDS011;37569;50.548;8.778;2024-01-10T10:05:49;36.9;;;19;;
51491;SDS011;37569;50.548;8.778;2024-01-10T10:10:49;38.4;;;19.4;;
51491;SDS011;37569;50.548;8.778;2024-01-10T10:15:51;41.2;;;21.7;;
51491;SDS011;37569;50.548;8.778;2024-01-10T10:20:49;28.3;;;14.3;;
51491;SDS011;37569;50.548;8.778;2024-01-10T10:25:49;37.4;;;18;;
51491;SDS011;37569;50.548;8.778;2024-01-10T10:30:48;33.9;;;16.2;;
51491;SDS011;37569;50.548;8.778;2024-01-10T10:35:49;38.8;;;20.3;;
51491;SDS011;37569;50.548;8.778;2024-01-10T10:40:48;37.3;;;19.4;;
51491;SDS011;37569;50.548;8.778;2024-01-10T10:45:48;41.2;;;21.2;;
51491;SDS011;37569;50.548;8.778;2024-01-10T10:50:50;35.7;;;19;;
51491;SDS011;37569;50.548;8.778;2024-01-10T10:55:48;35.6;;;18.3;;
51491;SDS011;37569;50.548;8.778;2024-01-10T11:00:47;33.2;;;17.6;;
51491;SDS011;37569;50.548;8.778;2024-01-10T11:05:47;34.4;;;18.3;;
51491;SDS011;37569;50.548;8.778;2024-01-10T11:10:47;34.7;;;17.6;;
51491;SDS011;37569;50.548;8.778;2024-01-10T11:15:54;31.2;;;17.9;;
51491;SDS011;37569;50.548;8.778;2024-01-10T11:20:57;30.8;;;18;;
51491;SDS011;37569;50.548;8.778;2024-01-10T11:25:47;34.8;;;17.9;;
51491;SDS011;37569;50.548;8.778;2024-01-10T11:30:48;33.1;;;16.7;;
51491;SDS011;37569;50.548;8.778;2024-01-10T11:36:05;28.9;;;16.3;;
51491;SDS011;37569;50.548;8.778;2024-01-10T11:40:47;32.3;;;17;;
51491;SDS011;37569;50.548;8.778;2024-01-10T11:45:50;35.5;;;17;;
51491;SDS011;37569;50.548;8.778;2024-01-10T11:50:47;34.2;;;17.6;;
51491;SDS011;37569;50.548;8.778;2024-01-10T11:55:47;32.4;;;17.1;;
51491;SDS011;37569;50.548;8.778;2024-01-10T12:00:47;34.2;;;17.9;;
51491;SDS011;37569;50.548;8.778;2024-01-10T12:05:47;36.4;;;19.1;;
51491;SDS011;37569;50.548;8.778;2024-01-10T12:10:46;32.6;;;18.7;;
51491;SDS011;37569;50.548;8.778;2024-01-10T12:15:46;32.9;;;18;;
51491;SDS011;37569;50.548;8.778;2024-01-10T12:20:46;32.7;;;18.1;;
51491;SDS011;37569;50.548;8.778;2024-01-10T12:25:48;33.3;;;18.5;;
51491;SDS011;37569;50.548;8.778;2024-01-10T12:30:47;30.8;;;16.9;;
51491;SDS011;37569;50.548;8.778;2024-01-10T12:36:01;31.1;;;17.2;;
51491;SDS011;37569;50.548;8.778;2024-01-10T12:40:46;40.1;;;20.2;;
51491;SDS011;37569;50.548;8.778;2024-01-10T12:45:46;34.6;;;19.3;;
51491;SDS011;37569;50.548;8.778;2024-01-10T12:50:46;30.6;;;17.3;;
51491;SDS011;37569;50.548;8.778;2024-01-10T12:55:46;32.9;;;17.7;;
51491;SDS011;37569;50.548;8.778;2024-01-10T13:00:46;32.1;;;16.3;;
51491;SDS011;37569;50.548;8.778;2024-01-10T13:05:46;33;;;17.6;;
51491;SDS011;37569;50.548;8.778;2024-01-10T13:10:47;31.8;;;17.7;;
51491;SDS011;37569;50.548;8.778;2024-01-10T13:15:47;33.7;;;17.2;;
51491;SDS011;37569;50.548;8.778;2024-01-10T13:20:47;31.5;;;17.1;;
51491;SDS011;37569;50.548;8.778;2024-01-10T13:25:47;29.3;;;16.6;;
51491;SDS011;37569;50.548;8.778;2024-01-10T13:30:47;30;;;16.4;;
51491;SDS011;37569;50.548;8.778;2024-01-10T13:35:47;29.1;;;17;;
51491;SDS011;37569;50.548;8.778;2024-01-10T13:40:47;34.8;;;17.9;;
51491;SDS011;37569;50.548;8.778;2024-01-10T13:45:47;32.2;;;17.9;;
51491;SDS011;37569;50.548;8.778;2024-01-10T13:50:47;34.2;;;17.8;;
51491;SDS011;37569;50.548;8.778;2024-01-10T13:55:47;29.7;;;16.5;;
51491;SDS011;37569;50.548;8.778;2024-01-10T14:00:47;33.3;;;17.5;;
51491;SDS011;37569;50.548;8.778;2024-01-10T14:05:47;31;;;17.9;;
51491;SDS011;37569;50.548;8.778;2024-01-10T14:10:47;31.5;;;17.7;;
51491;SDS011;37569;50.548;8.778;2024-01-10T14:15:47;32.1;;;17;;
51491;SDS011;37569;50.548;8.778;2024-01-10T14:20:47;33.8;;;19.2;;
51491;SDS011;37569;50.548;8.778;2024-01-10T14:25:47;31.6;;;18.3;;
51491;SDS011;37569;50.548;8.778;2024-01-10T14:30:47;29.5;;;18.1;;
51491;SDS011;37569;50.548;8.778;2024-01-10T14:35:47;33.1;;;19.3;;
51491;SDS011;37569;50.548;8.778;2024-01-10T14:40:47;34.7;;;17.8;;
51491;SDS011;37569;50.548;8.778;2024-01-10T14:45:47;34.8;;;19;;
51491;SDS011;37569;50.548;8.778;2024-01-10T14:50:47;31.7;;;17.9;;
51491;SDS011;37569;50.548;8.778;2024-01-10T14:55:47;30.5;;;17.5;;
51491;SDS011;37569;50.548;8.778;2024-01-10T15:00:47;28.7;;;15.2;;
51491;SDS011;37569;50.548;8.778;2024-01-10T15:05:47;30.6;;;16.7;;
51491;SDS011;37569;50.548;8.778;2024-01-10T15:10:47;36.4;;;18.9;;
51491;SDS011;37569;50.548;8.778;2024-01-10T15:15:47;36.8;;;20.4;;
51491;SDS011;37569;50.548;8.778;2024-01-10T15:20:47;35;;;18.9;;
51491;SDS011;37569;50.548;8.778;2024-01-10T15:25:47;37.4;;;18.5;;
51491;SDS011;37569;50.548;8.778;2024-01-10T15:30:47;36.4;;;18.5;;
51491;SDS011;37569;50.548;8.778;2024-01-10T15:35:47;37.1;;;19.9;;
51491;SDS011;37569;50.548;8.778;2024-01-10T15:40:47;40.7;;;21.9;;
51491;SDS011;37569;50.548;8.778;2024-01-10T15:45:47;41;;;21.4;;
51491;SDS011;37569;50.548;8.778;2024-01-10T15:50:47;36.8;;;20.7;;
51491;SDS011;37569;50.548;8.778;2024-01-10T15:55:47;40;;;20;;
51491;SDS011;37569;50.548;8.778;2024-01-10T16:00:47;36.6;;;20.2;;
51491;SDS011;37569;50.548;8.778;2024-01-10T16:05:47;37.7;;;19.6;;
51491;SDS011;37569;50.548;8.778;2024-01-10T16:10:47;34.6;;;19.8;;
51491;SDS011;37569;50.548;8.778;2024-01-10T16:15:47;36.5;;;20.8;;
51491;SDS011;37569;50.548;8.778;2024-01-10T16:20:47;34.7;;;18.3;;
51491;SDS011;37569;50.548;8.778;2024-01-10T16:25:47;36.1;;;19.2;;
51491;SDS011;37569;50.548;8.778;2024-01-10T16:30:47;37.2;;;19.8;;
51491;SDS011;37569;50.548;8.778;2024-01-10T16:35:47;32.7;;;19;;
51491;SDS011;37569;50.548;8.778;2024-01-10T16:40:47;32.8;;;18.8;;
51491;SDS011;37569;50.548;8.778;2024-01-10T16:45:47;35.5;;;20.3;;
51491;SDS011;37569;50.548;8.778;2024-01-10T16:50:47;36.6;;;19.2;;
51491;SDS011;37569;50.548;8.778;2024-01-10T16:55:47;34.5;;;19.5;;
51491;SDS011;37569;50.548;8.778;2024-01-10T17:00:47;35.7;;;19.1;;
51491;SDS011;37569;50.548;8.778;2024-01-10T17:05:47;59.6;;;29.9;;
51491;SDS011;37569;50.548;8.778;2024-01-10T17:10:47;42.6;;;22.7;;
51491;SDS011;37569;50.548;8.778;2024-01-10T17:15:47;43.7;;;23.1;;
51491;SDS011;37569;50.548;8.778;2024-01-10T17:20:47;39.5;;;23.9;;
51491;SDS011;37569;50.548;8.778;2024-01-10T17:25:47;39.6;;;21.9;;
51491;SDS011;37569;50.548;8.778;2024-01-10T17:30:47;37;;;22.5;;
51491;SDS011;37569;50.548;8.778;2024-01-10T17:35:47;36.7;;;20.2;;
51491;SDS011;37569;50.548;8.778;2024-01-10T17:40:47;32.7;;;19;;
51491;SDS011;37569;50.548;8.778;2024-01-10T17:45:47;34.4;;;19.1;;
51491;SDS011;37569;50.548;8.778;2024-01-10T17:50:47;36.7;;;19.1;;
51491;SDS011;37569;50.548;8.778;2024-01-10T17:55:47;57.4;;;26.5;;
51491;SDS011;37569;50.548;8.778;2024-01-10T18:00:47;49.7;;;25.6;;
51491;SDS011;37569;50.548;8.778;2024-01-10T18:05:47;46.2;;;22.7;;
51491;SDS011;37569;50.548;8.778;2024-01-10T18:10:47;48.2;;;25.8;;
51491;SDS011;37569;50.548;8.778;2024-01-10T18:15:47;51.4;;;26.8;;
51491;SDS011;37569;50.548;8.778;2024-01-10T18:20:47;44;;;24.6;;
51491;SDS011;37569;50.548;8.778;2024-01-10T18:25:47;42.4;;;23.1;;
51491;SDS011;37569;50.548;8.778;2024-01-10T18:30:47;39.4;;;22.8;;
51491;SDS011;37569;50.548;8.778;2024-01-10T18:35:47;40.8;;;22.5;;
51491;SDS011;37569;50.548;8.778;2024-01-10T18:40:47;40.2;;;21.3;;
51491;SDS011;37569;50.548;8.778;2024-01-10T18:45:47;35.5;;;20.2;;
51491;SDS011;37569;50.548;8.778;2024-01-10T18:50:47;45.2;;;22.1;;
51491;SDS011;37569;50.548;8.778;2024-01-10T18:55:47;40.5;;;23.5;;
51491;SDS011;37569;50.548;8.778;2024-01-10T19:00:47;42.6;;;23.2;;
51491;SDS011;37569;50.548;8.778;2024-01-10T19:05:47;45.1;;;23.8;;
51491;SDS011;37569;50.548;8.778;2024-01-10T19:10:46;46.8;;;24.1;;
51491;SDS011;37569;50.548;8.778;2024-01-10T19:15:46;47.6;;;26.2;;
51491;SDS011;37569;50.548;8.778;2024-01-10T19:20:46;46.4;;;24.9;;
51491;SDS011;37569;50.548;8.778;2024-01-10T19:25:46;52;;;26.8;;
51491;SDS011;37569;50.548;8.778;2024-01-10T19:30:46;45.6;;;24.6;;
51491;SDS011;37569;50.548;8.778;2024-01-10T19:35:46;50.4;;;25.7;;
51491;SDS011;37569;50.548;8.778;2024-01-10T19:40:46;41.6;;;23.6;;
51491;SDS011;37569;50.548;8.778;2024-01-10T19:45:46;42.9;;;22.9;;
51491;SDS011;37569;50.548;8.778;2024-01-10T19:50:46;38.1;;;21.6;;
51491;SDS011;37569;50.548;8.778;2024-01-10T19:55:46;44.5;;;24.2;;
51491;SDS011;37569;50.548;8.778;2024-01-10T20:00:46;47.3;;;24.5;;
51491;SDS011;37569;50.548;8.778;2024-01-10T20:05:46;54.7;;;27.1;;
51491;SDS011;37569;50.548;8.778;2024-01-10T20:10:46;48;;;25.5;;
51491;SDS011;37569;50.548;8.778;2024-01-10T20:15:46;48.2;;;25.7;;
51491;SDS011;37569;50.548;8.778;2024-01-10T20:20:46;41.5;;;23.3;;
51491;SDS011;37569;50.548;8.778;2024-01-10T20:25:45;44.4;;;24.4;;
51491;SDS011;37569;50.548;8.778;2024-01-10T20:30:45;49.8;;;25.6;;
51491;SDS011;37569;50.548;8.778;2024-01-10T20:35:45;46.8;;;24.9;;
51491;SDS011;37569;50.548;8.778;2024-01-10T20:40:45;44.1;;;23.7;;
51491;SDS011;37569;50.548;8.778;2024-01-10T20:45:45;39.7;;;21.1;;
51491;SDS011;37569;50.548;8.778;2024-01-10T20:50:45;38.9;;;22.4;;
51491;SDS011;37569;50.548;8.778;2024-01-10T20:55:45;43.8;;;22.4;;
51491;SDS011;37569;50.548;8.778;2024-01-10T21:00:45;40.7;;;22.2;;
51491;SDS011;37569;50.548;8.778;2024-01-10T21:05:45;40.4;;;22.6;;
51491;SDS011;37569;50.548;8.778;2024-01-10T21:10:45;37.8;;;20.4;;
51491;SDS011;37569;50.548;8.778;2024-01-10T21:15:44;35.4;;;17.6;;
51491;SDS011;37569;50.548;8.778;2024-01-10T21:20:44;31.4;;;17.6;;
51491;SDS011;37569;50.548;8.778;2024-01-10T21:25:44;34;;;18;;
51491;SDS011;37569;50.548;8.778;2024-01-10T21:30:44;34.6;;;18.6;;
51491;SDS011;37569;50.548;8.778;2024-01-10T21:35:44;35.3;;;18.9;;
51491;SDS011;37569;50.548;8.778;2024-01-10T21:40:44;35;;;18.3;;
51491;SDS011;37569;50.548;8.778;2024-01-10T21:45:44;36.3;;;18.9;;
51491;SDS011;37569;50.548;8.778;2024-01-10T21:50:44;32;;;17.2;;
51491;SDS011;37569;50.548;8.778;2024-01-10T21:55:44;34.1;;;18.1;;
51491;SDS011;37569;50.548;8.778;2024-01-10T22:00:43;30.1;;;17.8;;
51491;SDS011;37569;50.548;8.778;2024-01-10T22:05:43;35.8;;;18.8;;
51491;SDS011;37569;50.548;8.778;2024-01-10T22:10:43;33.3;;;18.6;;
51491;SDS011;37569;50.548;8.778;2024-01-10T22:15:43;33.5;;;18.8;;
51491;SDS011;37569;50.548;8.778;2024-01-10T22:20:43;43;;;19.1;;
51491;SDS011;37569;50.548;8.778;2024-01-10T22:25:43;41.4;;;19.9;;
51491;SDS011;37569;50.548;8.778;2024-01-10T22:30:43;46.6;;;21.6;;
51491;SDS011;37569;50.548;8.778;2024-01-10T22:35:42;47;;;21.7;;
51491;SDS011;37569;50.548;8.778;2024-01-10T22:40:42;36.7;;;18.8;;
51491;SDS011;37569;50.548;8.778;2024-01-10T22:45:42;40.4;;;19.7;;
51491;SDS011;37569;50.548;8.778;2024-01-10T22:50:42;44.2;;;19.8;;
51491;SDS011;37569;50.548;8.778;2024-01-10T22:55:42;37.6;;;18.6;;
51491;SDS011;37569;50.548;8.778;2024-01-10T23:00:42;34.8;;;17;;
51491;SDS011;37569;50.548;8.778;2024-01-10T23:05:42;34.3;;;16.6;;
51491;SDS011;37569;50.548;8.778;2024-01-10T23:10:41;32.5;;;16.2;;
51491;SDS011;37569;50.548;8.778;2024-01-10T23:15:41;33.4;;;17;;
51491;SDS011;37569;50.548;8.778;2024-01-10T23:21:13;30.9;;;16.4;;
51491;SDS011;37569;50.548;8.778;2024-01-10T23:25:41;31.2;;;16.7;;
51491;SDS011;37569;50.548;8.778;2024-01-10T23:30:41;34.8;;;16.1;;
51491;SDS011;37569;50.548;8.778;2024-01-10T23:35:41;32;;;17.2;;
51491;SDS011;37569;50.548;8.778;2024-01-10T23:40:41;36.1;;;15.9;;
51491;SDS011;37569;50.548;8.778;2024-01-10T23:45:40;32;;;16.3;;
51491;SDS011;37569;50.548;8.778;2024-01-10T23:50:40;30.7;;;15.9;;
51491;SDS011;37569;50.548;8.778;2024-01-10T23:55:40;34.6;;;18.5;;
